sensor_id;sensor_type;location;lat;lon;timestamp;temperature;humidity
6439;DHT22;3252;52.540;13.290;2023-05-09T00:00:18;11.30;92.20
6439;DHT22;3252;52.540;13.290;2023-05-09T00:02:21;11.30;92.00
6439;DHT22;3252;52.540;13.290;2023-05-09T00:04:23;11.30;92.10
6439;DHT22;3252;52.540;13.290;2023-05-09T00:06:26;11.30;92.50
6439;DHT22;3252;52.540;13.290;2023-05-09T00:08:28;11.30;92.10
6439;DHT22;3252;52.540;13.290;2023-05-09T00:10:30;11.30;92.20
6439;DHT22;3252;52.540;13.290;2023-05-09T00:12:33;11.20;92.40
6439;DHT22;3252;52.540;13.290;2023-05-09T00:14:37;11.10;92.70
6439;DHT22;3252;52.540;13.290;2023-05-09T00:16:40;11.10;92.70
6439;DHT22;3252;52.540;13.290;2023-05-09T00:18:43;11.10;92.80
6439;DHT22;3252;52.540;13.290;2023-05-09T00:20:45;11.10;92.80
6439;DHT22;3252;52.540;13.290;2023-05-09T00:22:48;11.00;92.90
6439;DHT22;3252;52.540;13.290;2023-05-09T00:24:50;11.00;93.00
6439;DHT22;3252;52.540;13.290;2023-05-09T00:26:53;10.90;93.20
6439;DHT22;3252;52.540;13.290;2023-05-09T00:28:55;10.90;93.10
6439;DHT22;3252;52.540;13.290;2023-05-09T00:30:59;10.90;93.20
6439;DHT22;3252;52.540;13.290;2023-05-09T00:33:01;11.00;93.40
6439;DHT22;3252;52.540;13.290;2023-05-09T00:35:04;10.90;93.10
6439;DHT22;3252;52.540;13.290;2023-05-09T00:37:07;11.00;93.20
6439;DHT22;3252;52.540;13.290;2023-05-09T00:39:10;10.90;93.40
6439;DHT22;3252;52.540;13.290;2023-05-09T00:41:13;10.90;93.10
6439;DHT22;3252;52.540;13.290;2023-05-09T00:43:15;10.90;93.00
6439;DHT22;3252;52.540;13.290;2023-05-09T00:45:17;10.90;93.10
6439;DHT22;3252;52.540;13.290;2023-05-09T00:47:22;10.80;93.00
6439;DHT22;3252;52.540;13.290;2023-05-09T00:49:25;10.80;93.10
6439;DHT22;3252;52.540;13.290;2023-05-09T00:51:28;10.80;93.10
6439;DHT22;3252;52.540;13.290;2023-05-09T00:53:30;10.80;93.10
6439;DHT22;3252;52.540;13.290;2023-05-09T00:55:32;10.90;92.90
6439;DHT22;3252;52.540;13.290;2023-05-09T00:57:35;10.90;92.90
6439;DHT22;3252;52.540;13.290;2023-05-09T00:59:37;10.80;92.80
6439;DHT22;3252;52.540;13.290;2023-05-09T01:01:39;10.80;92.80
6439;DHT22;3252;52.540;13.290;2023-05-09T01:03:44;10.80;92.60
6439;DHT22;3252;52.540;13.290;2023-05-09T01:05:53;10.80;92.60
6439;DHT22;3252;52.540;13.290;2023-05-09T01:08:02;10.80;92.60
6439;DHT22;3252;52.540;13.290;2023-05-09T01:10:18;10.80;92.80
6439;DHT22;3252;52.540;13.290;2023-05-09T01:12:28;10.80;92.50
6439;DHT22;3252;52.540;13.290;2023-05-09T01:14:37;10.80;92.40
6439;DHT22;3252;52.540;13.290;2023-05-09T01:16:46;10.80;92.10
6439;DHT22;3252;52.540;13.290;2023-05-09T01:18:57;10.70;92.10
6439;DHT22;3252;52.540;13.290;2023-05-09T01:21:07;10.70;92.10
6439;DHT22;3252;52.540;13.290;2023-05-09T01:25:52;10.70;92.00
6439;DHT22;3252;52.540;13.290;2023-05-09T01:27:59;10.70;92.10
6439;DHT22;3252;52.540;13.290;2023-05-09T01:30:07;10.70;92.00
6439;DHT22;3252;52.540;13.290;2023-05-09T01:32:15;10.70;91.80
6439;DHT22;3252;52.540;13.290;2023-05-09T01:34:21;10.60;91.70
6439;DHT22;3252;52.540;13.290;2023-05-09T01:36:28;10.60;91.60
6439;DHT22;3252;52.540;13.290;2023-05-09T01:38:33;10.60;91.80
6439;DHT22;3252;52.540;13.290;2023-05-09T01:40:39;10.60;91.70
6439;DHT22;3252;52.540;13.290;2023-05-09T01:42:46;10.60;91.80
6439;DHT22;3252;52.540;13.290;2023-05-09T01:44:50;10.60;91.70
6439;DHT22;3252;52.540;13.290;2023-05-09T01:46:56;10.60;91.90
6439;DHT22;3252;52.540;13.290;2023-05-09T01:49:01;10.60;91.70
6439;DHT22;3252;52.540;13.290;2023-05-09T01:51:29;10.60;91.70
6439;DHT22;3252;52.540;13.290;2023-05-09T01:53:35;10.60;91.90
6439;DHT22;3252;52.540;13.290;2023-05-09T01:55:38;10.50;91.60
6439;DHT22;3252;52.540;13.290;2023-05-09T01:57:42;10.50;91.60
6439;DHT22;3252;52.540;13.290;2023-05-09T01:59:45;10.50;91.60
6439;DHT22;3252;52.540;13.290;2023-05-09T02:01:48;10.50;91.60
6439;DHT22;3252;52.540;13.290;2023-05-09T02:03:53;10.40;91.60
6439;DHT22;3252;52.540;13.290;2023-05-09T02:05:57;10.40;91.50
6439;DHT22;3252;52.540;13.290;2023-05-09T02:08:02;10.40;91.50
6439;DHT22;3252;52.540;13.290;2023-05-09T02:10:09;10.40;91.60
6439;DHT22;3252;52.540;13.290;2023-05-09T02:12:12;10.40;91.20
6439;DHT22;3252;52.540;13.290;2023-05-09T02:14:14;10.40;91.30
6439;DHT22;3252;52.540;13.290;2023-05-09T02:16:17;10.40;91.00
6439;DHT22;3252;52.540;13.290;2023-05-09T02:18:20;10.40;91.00
6439;DHT22;3252;52.540;13.290;2023-05-09T02:20:24;10.40;90.70
6439;DHT22;3252;52.540;13.290;2023-05-09T02:22:26;10.40;90.40
6439;DHT22;3252;52.540;13.290;2023-05-09T02:24:30;10.30;90.20
6439;DHT22;3252;52.540;13.290;2023-05-09T02:26:33;10.30;89.80
6439;DHT22;3252;52.540;13.290;2023-05-09T02:28:37;10.30;89.50
6439;DHT22;3252;52.540;13.290;2023-05-09T02:30:42;10.30;89.30
6439;DHT22;3252;52.540;13.290;2023-05-09T02:32:46;10.40;88.50
6439;DHT22;3252;52.540;13.290;2023-05-09T02:34:51;10.40;88.40
6439;DHT22;3252;52.540;13.290;2023-05-09T02:36:55;10.40;88.10
6439;DHT22;3252;52.540;13.290;2023-05-09T02:38:57;10.40;87.30
6439;DHT22;3252;52.540;13.290;2023-05-09T02:41:00;10.30;87.00
6439;DHT22;3252;52.540;13.290;2023-05-09T02:43:02;10.30;87.30
6439;DHT22;3252;52.540;13.290;2023-05-09T02:45:06;10.30;87.10
6439;DHT22;3252;52.540;13.290;2023-05-09T02:47:10;10.30;87.30
6439;DHT22;3252;52.540;13.290;2023-05-09T02:49:12;10.30;87.40
6439;DHT22;3252;52.540;13.290;2023-05-09T02:51:14;10.30;86.20
6439;DHT22;3252;52.540;13.290;2023-05-09T02:53:18;10.30;86.40
6439;DHT22;3252;52.540;13.290;2023-05-09T02:55:20;10.30;86.60
6439;DHT22;3252;52.540;13.290;2023-05-09T02:57:23;10.30;86.50
6439;DHT22;3252;52.540;13.290;2023-05-09T02:59:25;10.30;86.40
6439;DHT22;3252;52.540;13.290;2023-05-09T03:01:28;10.20;86.10
6439;DHT22;3252;52.540;13.290;2023-05-09T03:03:31;10.20;86.40
6439;DHT22;3252;52.540;13.290;2023-05-09T03:05:35;10.20;86.30
6439;DHT22;3252;52.540;13.290;2023-05-09T03:07:37;10.20;86.10
6439;DHT22;3252;52.540;13.290;2023-05-09T03:09:41;10.10;86.30
6439;DHT22;3252;52.540;13.290;2023-05-09T03:11:43;10.10;86.40
6439;DHT22;3252;52.540;13.290;2023-05-09T03:13:45;10.10;86.80
6439;DHT22;3252;52.540;13.290;2023-05-09T03:15:48;10.10;87.60
6439;DHT22;3252;52.540;13.290;2023-05-09T03:17:50;10.10;87.20
6439;DHT22;3252;52.540;13.290;2023-05-09T03:19:52;10.10;86.80
6439;DHT22;3252;52.540;13.290;2023-05-09T03:21:55;10.10;86.70
6439;DHT22;3252;52.540;13.290;2023-05-09T03:23:57;10.10;87.00
6439;DHT22;3252;52.540;13.290;2023-05-09T03:26:01;10.10;86.80
6439;DHT22;3252;52.540;13.290;2023-05-09T03:28:04;10.10;86.40
6439;DHT22;3252;52.540;13.290;2023-05-09T03:30:07;10.10;87.00
6439;DHT22;3252;52.540;13.290;2023-05-09T03:32:09;10.10;86.90
6439;DHT22;3252;52.540;13.290;2023-05-09T03:34:12;10.00;86.70
6439;DHT22;3252;52.540;13.290;2023-05-09T03:36:16;10.00;86.50
6439;DHT22;3252;52.540;13.290;2023-05-09T03:38:18;10.00;87.50
6439;DHT22;3252;52.540;13.290;2023-05-09T03:40:24;10.00;87.50
6439;DHT22;3252;52.540;13.290;2023-05-09T03:42:42;10.00;87.70
6439;DHT22;3252;52.540;13.290;2023-05-09T03:44:44;10.00;88.30
6439;DHT22;3252;52.540;13.290;2023-05-09T03:46:46;10.00;88.30
6439;DHT22;3252;52.540;13.290;2023-05-09T03:48:49;9.90;89.40
6439;DHT22;3252;52.540;13.290;2023-05-09T03:50:52;9.90;90.00
6439;DHT22;3252;52.540;13.290;2023-05-09T03:52:55;9.90;90.00
6439;DHT22;3252;52.540;13.290;2023-05-09T03:54:57;9.90;90.10
6439;DHT22;3252;52.540;13.290;2023-05-09T03:57:00;9.90;90.20
6439;DHT22;3252;52.540;13.290;2023-05-09T03:59:03;10.00;89.60
6439;DHT22;3252;52.540;13.290;2023-05-09T04:01:07;9.90;90.20
6439;DHT22;3252;52.540;13.290;2023-05-09T04:03:10;10.00;90.00
6439;DHT22;3252;52.540;13.290;2023-05-09T04:05:16;10.00;90.10
6439;DHT22;3252;52.540;13.290;2023-05-09T04:07:19;10.00;90.00
6439;DHT22;3252;52.540;13.290;2023-05-09T04:09:22;10.00;90.10
6439;DHT22;3252;52.540;13.290;2023-05-09T04:11:27;10.00;90.30
6439;DHT22;3252;52.540;13.290;2023-05-09T04:13:30;10.00;90.50
6439;DHT22;3252;52.540;13.290;2023-05-09T04:15:37;10.00;90.40
6439;DHT22;3252;52.540;13.290;2023-05-09T04:17:41;10.00;90.50
6439;DHT22;3252;52.540;13.290;2023-05-09T04:19:43;10.00;90.50
6439;DHT22;3252;52.540;13.290;2023-05-09T04:21:46;10.00;90.60
6439;DHT22;3252;52.540;13.290;2023-05-09T04:23:48;10.00;90.70
6439;DHT22;3252;52.540;13.290;2023-05-09T04:25:54;10.00;90.80
6439;DHT22;3252;52.540;13.290;2023-05-09T04:27:57;10.00;90.80
6439;DHT22;3252;52.540;13.290;2023-05-09T04:29:59;10.00;91.00
6439;DHT22;3252;52.540;13.290;2023-05-09T04:32:04;9.90;91.40
6439;DHT22;3252;52.540;13.290;2023-05-09T04:34:07;10.00;91.10
6439;DHT22;3252;52.540;13.290;2023-05-09T04:36:12;10.00;91.10
6439;DHT22;3252;52.540;13.290;2023-05-09T04:38:14;10.00;91.00
6439;DHT22;3252;52.540;13.290;2023-05-09T04:40:16;10.00;91.10
6439;DHT22;3252;52.540;13.290;2023-05-09T04:42:26;10.00;91.10
6439;DHT22;3252;52.540;13.290;2023-05-09T04:44:29;10.00;91.30
6439;DHT22;3252;52.540;13.290;2023-05-09T04:46:32;10.00;91.40
6439;DHT22;3252;52.540;13.290;2023-05-09T04:48:36;10.00;91.40
6439;DHT22;3252;52.540;13.290;2023-05-09T04:50:39;10.10;91.60
6439;DHT22;3252;52.540;13.290;2023-05-09T04:52:41;10.10;91.40
6439;DHT22;3252;52.540;13.290;2023-05-09T04:54:44;10.10;91.50
6439;DHT22;3252;52.540;13.290;2023-05-09T04:56:47;10.20;91.50
6439;DHT22;3252;52.540;13.290;2023-05-09T04:58:50;10.20;91.40
6439;DHT22;3252;52.540;13.290;2023-05-09T05:00:53;10.20;91.20
6439;DHT22;3252;52.540;13.290;2023-05-09T05:02:56;10.20;91.50
6439;DHT22;3252;52.540;13.290;2023-05-09T05:05:02;10.20;91.20
6439;DHT22;3252;52.540;13.290;2023-05-09T05:07:06;10.30;91.40
6439;DHT22;3252;52.540;13.290;2023-05-09T05:09:09;10.20;91.20
6439;DHT22;3252;52.540;13.290;2023-05-09T05:11:12;10.30;91.40
6439;DHT22;3252;52.540;13.290;2023-05-09T05:13:15;10.40;91.30
6439;DHT22;3252;52.540;13.290;2023-05-09T05:15:21;10.50;91.20
6439;DHT22;3252;52.540;13.290;2023-05-09T05:17:23;10.40;90.70
6439;DHT22;3252;52.540;13.290;2023-05-09T05:19:26;10.40;91.00
6439;DHT22;3252;52.540;13.290;2023-05-09T05:21:30;10.40;91.00
6439;DHT22;3252;52.540;13.290;2023-05-09T05:23:32;10.50;91.20
6439;DHT22;3252;52.540;13.290;2023-05-09T05:25:35;10.60;90.60
6439;DHT22;3252;52.540;13.290;2023-05-09T05:27:37;10.60;90.30
6439;DHT22;3252;52.540;13.290;2023-05-09T05:29:40;10.60;90.50
6439;DHT22;3252;52.540;13.290;2023-05-09T05:31:42;10.60;89.60
6439;DHT22;3252;52.540;13.290;2023-05-09T05:33:44;10.70;89.80
6439;DHT22;3252;52.540;13.290;2023-05-09T05:35:50;10.70;90.00
6439;DHT22;3252;52.540;13.290;2023-05-09T05:37:53;10.80;89.30
6439;DHT22;3252;52.540;13.290;2023-05-09T05:39:56;10.80;88.50
6439;DHT22;3252;52.540;13.290;2023-05-09T05:41:59;10.90;89.20
6439;DHT22;3252;52.540;13.290;2023-05-09T05:44:02;10.90;88.00
6439;DHT22;3252;52.540;13.290;2023-05-09T05:46:05;11.00;88.70
6439;DHT22;3252;52.540;13.290;2023-05-09T05:48:08;11.10;87.60
6439;DHT22;3252;52.540;13.290;2023-05-09T05:50:10;11.10;87.20
6439;DHT22;3252;52.540;13.290;2023-05-09T05:52:13;11.10;84.80
6439;DHT22;3252;52.540;13.290;2023-05-09T05:54:17;11.20;84.50
6439;DHT22;3252;52.540;13.290;2023-05-09T05:56:19;11.20;82.80
6439;DHT22;3252;52.540;13.290;2023-05-09T05:58:23;11.30;83.10
6439;DHT22;3252;52.540;13.290;2023-05-09T06:00:25;11.40;81.00
6439;DHT22;3252;52.540;13.290;2023-05-09T06:02:35;11.50;80.30
6439;DHT22;3252;52.540;13.290;2023-05-09T06:04:37;11.60;79.50
6439;DHT22;3252;52.540;13.290;2023-05-09T06:06:39;11.60;78.30
6439;DHT22;3252;52.540;13.290;2023-05-09T06:08:41;11.80;76.20
6439;DHT22;3252;52.540;13.290;2023-05-09T06:10:45;11.90;74.10
6439;DHT22;3252;52.540;13.290;2023-05-09T06:12:47;12.10;72.00
6439;DHT22;3252;52.540;13.290;2023-05-09T06:14:49;12.10;72.00
6439;DHT22;3252;52.540;13.290;2023-05-09T06:16:52;12.10;71.70
6439;DHT22;3252;52.540;13.290;2023-05-09T06:18:54;12.20;71.60
6439;DHT22;3252;52.540;13.290;2023-05-09T06:20:56;12.40;71.20
6439;DHT22;3252;52.540;13.290;2023-05-09T06:22:59;12.60;70.90
6439;DHT22;3252;52.540;13.290;2023-05-09T06:25:01;12.70;70.10
6439;DHT22;3252;52.540;13.290;2023-05-09T06:27:04;12.90;68.20
6439;DHT22;3252;52.540;13.290;2023-05-09T06:29:07;13.00;64.60
6439;DHT22;3252;52.540;13.290;2023-05-09T06:31:09;12.90;64.60
6439;DHT22;3252;52.540;13.290;2023-05-09T06:33:11;13.00;65.30
6439;DHT22;3252;52.540;13.290;2023-05-09T06:35:13;13.00;64.00
6439;DHT22;3252;52.540;13.290;2023-05-09T06:37:15;13.10;63.90
6439;DHT22;3252;52.540;13.290;2023-05-09T06:39:18;13.10;63.70
6439;DHT22;3252;52.540;13.290;2023-05-09T06:41:20;12.90;62.90
6439;DHT22;3252;52.540;13.290;2023-05-09T06:43:23;12.90;62.60
6439;DHT22;3252;52.540;13.290;2023-05-09T06:45:26;12.80;62.90
6439;DHT22;3252;52.540;13.290;2023-05-09T06:47:28;12.90;63.40
6439;DHT22;3252;52.540;13.290;2023-05-09T06:49:30;13.20;63.20
6439;DHT22;3252;52.540;13.290;2023-05-09T06:51:32;13.40;61.00
6439;DHT22;3252;52.540;13.290;2023-05-09T06:53:34;13.50;59.90
6439;DHT22;3252;52.540;13.290;2023-05-09T06:55:36;13.40;59.80
6439;DHT22;3252;52.540;13.290;2023-05-09T06:57:39;13.50;58.20
6439;DHT22;3252;52.540;13.290;2023-05-09T06:59:42;13.40;58.20
6439;DHT22;3252;52.540;13.290;2023-05-09T07:01:45;13.60;59.20
6439;DHT22;3252;52.540;13.290;2023-05-09T07:03:48;13.80;58.90
6439;DHT22;3252;52.540;13.290;2023-05-09T07:05:50;13.90;58.20
6439;DHT22;3252;52.540;13.290;2023-05-09T07:07:52;13.80;57.40
6439;DHT22;3252;52.540;13.290;2023-05-09T07:09:55;13.80;57.80
6439;DHT22;3252;52.540;13.290;2023-05-09T07:11:58;13.80;57.10
6439;DHT22;3252;52.540;13.290;2023-05-09T07:14:01;14.10;57.30
6439;DHT22;3252;52.540;13.290;2023-05-09T07:16:05;13.90;56.80
6439;DHT22;3252;52.540;13.290;2023-05-09T07:18:07;14.00;56.20
6439;DHT22;3252;52.540;13.290;2023-05-09T07:20:10;13.80;56.70
6439;DHT22;3252;52.540;13.290;2023-05-09T07:22:12;13.70;57.70
6439;DHT22;3252;52.540;13.290;2023-05-09T07:24:14;13.80;58.20
6439;DHT22;3252;52.540;13.290;2023-05-09T07:26:16;13.80;57.90
6439;DHT22;3252;52.540;13.290;2023-05-09T07:28:18;14.00;57.00
6439;DHT22;3252;52.540;13.290;2023-05-09T07:30:21;14.20;56.30
6439;DHT22;3252;52.540;13.290;2023-05-09T07:32:24;14.30;55.50
6439;DHT22;3252;52.540;13.290;2023-05-09T07:34:28;14.50;54.60
6439;DHT22;3252;52.540;13.290;2023-05-09T07:36:30;14.70;52.70
6439;DHT22;3252;52.540;13.290;2023-05-09T07:38:32;14.80;53.10
6439;DHT22;3252;52.540;13.290;2023-05-09T07:40:34;14.90;52.70
6439;DHT22;3252;52.540;13.290;2023-05-09T07:42:38;15.10;52.10
6439;DHT22;3252;52.540;13.290;2023-05-09T07:44:40;15.00;50.70
6439;DHT22;3252;52.540;13.290;2023-05-09T07:46:42;14.80;50.10
6439;DHT22;3252;52.540;13.290;2023-05-09T07:48:46;14.80;49.90
6439;DHT22;3252;52.540;13.290;2023-05-09T07:50:48;14.90;50.00
6439;DHT22;3252;52.540;13.290;2023-05-09T07:52:50;15.10;49.50
6439;DHT22;3252;52.540;13.290;2023-05-09T07:54:53;15.40;49.30
6439;DHT22;3252;52.540;13.290;2023-05-09T07:56:56;15.50;48.50
6439;DHT22;3252;52.540;13.290;2023-05-09T07:58:58;15.50;48.10
6439;DHT22;3252;52.540;13.290;2023-05-09T08:01:00;15.40;48.10
6439;DHT22;3252;52.540;13.290;2023-05-09T08:03:02;15.50;48.40
6439;DHT22;3252;52.540;13.290;2023-05-09T08:05:07;15.60;48.50
6439;DHT22;3252;52.540;13.290;2023-05-09T08:07:11;15.60;47.30
6439;DHT22;3252;52.540;13.290;2023-05-09T08:09:13;15.30;46.80
6439;DHT22;3252;52.540;13.290;2023-05-09T08:11:15;15.30;47.20
6439;DHT22;3252;52.540;13.290;2023-05-09T08:13:17;15.10;47.50
6439;DHT22;3252;52.540;13.290;2023-05-09T08:15:19;15.10;47.20
6439;DHT22;3252;52.540;13.290;2023-05-09T08:17:21;15.20;47.20
6439;DHT22;3252;52.540;13.290;2023-05-09T08:19:23;15.40;47.20
6439;DHT22;3252;52.540;13.290;2023-05-09T08:21:27;15.70;46.60
6439;DHT22;3252;52.540;13.290;2023-05-09T08:23:29;15.80;45.60
6439;DHT22;3252;52.540;13.290;2023-05-09T08:25:31;15.70;45.00
6439;DHT22;3252;52.540;13.290;2023-05-09T08:27:34;15.60;44.00
6439;DHT22;3252;52.540;13.290;2023-05-09T08:29:36;15.80;44.50
6439;DHT22;3252;52.540;13.290;2023-05-09T08:31:38;16.10;44.40
6439;DHT22;3252;52.540;13.290;2023-05-09T08:33:40;16.20;44.50
6439;DHT22;3252;52.540;13.290;2023-05-09T08:35:43;16.30;44.00
6439;DHT22;3252;52.540;13.290;2023-05-09T08:37:48;16.20;43.20
6439;DHT22;3252;52.540;13.290;2023-05-09T08:39:51;15.90;43.30
6439;DHT22;3252;52.540;13.290;2023-05-09T08:41:57;15.70;43.10
6439;DHT22;3252;52.540;13.290;2023-05-09T08:44:00;15.90;43.70
6439;DHT22;3252;52.540;13.290;2023-05-09T08:46:06;16.30;44.80
6439;DHT22;3252;52.540;13.290;2023-05-09T08:48:10;16.20;43.50
6439;DHT22;3252;52.540;13.290;2023-05-09T08:50:13;16.70;43.10
6439;DHT22;3252;52.540;13.290;2023-05-09T08:52:17;18.30;41.70
6439;DHT22;3252;52.540;13.290;2023-05-09T08:54:22;18.60;39.20
6439;DHT22;3252;52.540;13.290;2023-05-09T08:56:25;19.00;38.40
6439;DHT22;3252;52.540;13.290;2023-05-09T08:58:27;18.70;38.40
6439;DHT22;3252;52.540;13.290;2023-05-09T09:00:30;19.20;38.20
6439;DHT22;3252;52.540;13.290;2023-05-09T09:02:34;20.20;37.20
6439;DHT22;3252;52.540;13.290;2023-05-09T09:04:38;19.00;37.00
6439;DHT22;3252;52.540;13.290;2023-05-09T09:06:40;19.50;37.50
6439;DHT22;3252;52.540;13.290;2023-05-09T09:08:43;18.60;37.90
6439;DHT22;3252;52.540;13.290;2023-05-09T09:10:48;18.40;38.40
6439;DHT22;3252;52.540;13.290;2023-05-09T09:12:51;19.40;38.60
6439;DHT22;3252;52.540;13.290;2023-05-09T09:14:54;19.40;38.10
6439;DHT22;3252;52.540;13.290;2023-05-09T09:16:57;19.90;37.10
6439;DHT22;3252;52.540;13.290;2023-05-09T09:18:59;20.20;36.10
6439;DHT22;3252;52.540;13.290;2023-05-09T09:21:07;20.20;36.10
6439;DHT22;3252;52.540;13.290;2023-05-09T09:23:10;20.40;36.20
6439;DHT22;3252;52.540;13.290;2023-05-09T09:25:13;21.60;35.60
6439;DHT22;3252;52.540;13.290;2023-05-09T09:27:16;22.50;34.60
6439;DHT22;3252;52.540;13.290;2023-05-09T09:29:20;22.80;34.30
6439;DHT22;3252;52.540;13.290;2023-05-09T09:31:24;22.40;34.20
6439;DHT22;3252;52.540;13.290;2023-05-09T09:33:28;23.30;34.60
6439;DHT22;3252;52.540;13.290;2023-05-09T09:35:37;22.60;34.30
6439;DHT22;3252;52.540;13.290;2023-05-09T09:37:40;22.60;34.00
6439;DHT22;3252;52.540;13.290;2023-05-09T09:39:52;22.80;34.40
6439;DHT22;3252;52.540;13.290;2023-05-09T09:41:55;23.10;34.40
6439;DHT22;3252;52.540;13.290;2023-05-09T09:44:05;24.30;33.40
6439;DHT22;3252;52.540;13.290;2023-05-09T09:46:07;25.00;32.60
6439;DHT22;3252;52.540;13.290;2023-05-09T09:48:10;23.40;31.50
6439;DHT22;3252;52.540;13.290;2023-05-09T09:50:13;22.90;32.60
6439;DHT22;3252;52.540;13.290;2023-05-09T09:52:22;23.30;32.50
6439;DHT22;3252;52.540;13.290;2023-05-09T09:54:26;22.70;32.30
6439;DHT22;3252;52.540;13.290;2023-05-09T09:56:37;22.10;31.80
6439;DHT22;3252;52.540;13.290;2023-05-09T09:58:40;21.70;33.20
6439;DHT22;3252;52.540;13.290;2023-05-09T10:00:43;21.20;33.80
6439;DHT22;3252;52.540;13.290;2023-05-09T10:02:48;21.20;35.10
6439;DHT22;3252;52.540;13.290;2023-05-09T10:04:51;21.00;34.50
6439;DHT22;3252;52.540;13.290;2023-05-09T10:06:54;20.50;34.20
6439;DHT22;3252;52.540;13.290;2023-05-09T10:08:56;19.80;34.00
6439;DHT22;3252;52.540;13.290;2023-05-09T10:10:59;19.70;35.20
6439;DHT22;3252;52.540;13.290;2023-05-09T10:13:02;19.60;35.50
6439;DHT22;3252;52.540;13.290;2023-05-09T10:15:06;19.10;35.90
6439;DHT22;3252;52.540;13.290;2023-05-09T10:17:13;18.60;36.30
6439;DHT22;3252;52.540;13.290;2023-05-09T10:19:17;18.50;36.50
6439;DHT22;3252;52.540;13.290;2023-05-09T10:21:21;18.30;36.50
6439;DHT22;3252;52.540;13.290;2023-05-09T10:23:23;18.00;36.00
6439;DHT22;3252;52.540;13.290;2023-05-09T10:25:27;17.70;36.10
6439;DHT22;3252;52.540;13.290;2023-05-09T10:27:35;17.80;35.80
6439;DHT22;3252;52.540;13.290;2023-05-09T10:29:40;17.70;36.50
6439;DHT22;3252;52.540;13.290;2023-05-09T10:31:45;17.80;37.00
6439;DHT22;3252;52.540;13.290;2023-05-09T10:33:50;17.70;36.90
6439;DHT22;3252;52.540;13.290;2023-05-09T10:35:53;17.50;37.60
6439;DHT22;3252;52.540;13.290;2023-05-09T10:37:56;17.70;38.20
6439;DHT22;3252;52.540;13.290;2023-05-09T10:40:00;17.90;37.90
6439;DHT22;3252;52.540;13.290;2023-05-09T10:42:04;18.20;38.00
6439;DHT22;3252;52.540;13.290;2023-05-09T10:44:07;18.50;37.90
6439;DHT22;3252;52.540;13.290;2023-05-09T10:46:11;18.60;37.30
6439;DHT22;3252;52.540;13.290;2023-05-09T10:48:13;18.80;37.40
6439;DHT22;3252;52.540;13.290;2023-05-09T10:50:18;18.80;37.40
6439;DHT22;3252;52.540;13.290;2023-05-09T10:52:21;18.40;37.60
6439;DHT22;3252;52.540;13.290;2023-05-09T10:54:27;18.30;38.90
6439;DHT22;3252;52.540;13.290;2023-05-09T10:56:33;18.40;38.70
6439;DHT22;3252;52.540;13.290;2023-05-09T10:58:35;18.40;38.40
6439;DHT22;3252;52.540;13.290;2023-05-09T11:00:40;18.20;38.20
6439;DHT22;3252;52.540;13.290;2023-05-09T11:03:06;18.20;38.40
6439;DHT22;3252;52.540;13.290;2023-05-09T11:05:19;17.90;38.10
6439;DHT22;3252;52.540;13.290;2023-05-09T11:07:23;17.80;38.80
6439;DHT22;3252;52.540;13.290;2023-05-09T11:09:36;18.10;38.90
6439;DHT22;3252;52.540;13.290;2023-05-09T11:11:50;18.30;38.70
6439;DHT22;3252;52.540;13.290;2023-05-09T11:13:56;18.20;38.40
6439;DHT22;3252;52.540;13.290;2023-05-09T11:16:09;18.30;38.60
6439;DHT22;3252;52.540;13.290;2023-05-09T11:18:12;18.00;37.80
6439;DHT22;3252;52.540;13.290;2023-05-09T11:20:14;18.00;37.30
6439;DHT22;3252;52.540;13.290;2023-05-09T11:22:19;17.90;37.40
6439;DHT22;3252;52.540;13.290;2023-05-09T11:24:24;17.90;38.40
6439;DHT22;3252;52.540;13.290;2023-05-09T11:26:30;18.10;38.40
6439;DHT22;3252;52.540;13.290;2023-05-09T11:28:35;18.30;38.60
6439;DHT22;3252;52.540;13.290;2023-05-09T11:30:39;18.40;38.10
6439;DHT22;3252;52.540;13.290;2023-05-09T11:32:44;18.60;38.30
6439;DHT22;3252;52.540;13.290;2023-05-09T11:34:46;18.50;38.00
6439;DHT22;3252;52.540;13.290;2023-05-09T11:36:48;18.40;38.10
6439;DHT22;3252;52.540;13.290;2023-05-09T11:39:01;18.60;39.20
6439;DHT22;3252;52.540;13.290;2023-05-09T11:41:05;18.60;37.90
6439;DHT22;3252;52.540;13.290;2023-05-09T11:43:07;18.60;37.70
6439;DHT22;3252;52.540;13.290;2023-05-09T11:45:11;18.70;38.50
6439;DHT22;3252;52.540;13.290;2023-05-09T11:47:13;18.60;37.50
6439;DHT22;3252;52.540;13.290;2023-05-09T11:49:15;18.60;37.90
6439;DHT22;3252;52.540;13.290;2023-05-09T11:51:19;18.70;38.10
6439;DHT22;3252;52.540;13.290;2023-05-09T11:53:21;18.40;38.20
6439;DHT22;3252;52.540;13.290;2023-05-09T11:55:25;18.50;38.70
6439;DHT22;3252;52.540;13.290;2023-05-09T11:57:29;18.70;38.50
6439;DHT22;3252;52.540;13.290;2023-05-09T11:59:33;18.70;39.00
6439;DHT22;3252;52.540;13.290;2023-05-09T12:01:35;18.80;38.60
6439;DHT22;3252;52.540;13.290;2023-05-09T12:03:41;18.60;38.00
6439;DHT22;3252;52.540;13.290;2023-05-09T12:05:43;18.60;38.10
6439;DHT22;3252;52.540;13.290;2023-05-09T12:07:46;18.70;37.80
6439;DHT22;3252;52.540;13.290;2023-05-09T12:09:48;18.70;37.20
6439;DHT22;3252;52.540;13.290;2023-05-09T12:11:52;18.80;36.90
6439;DHT22;3252;52.540;13.290;2023-05-09T12:13:54;18.80;36.60
6439;DHT22;3252;52.540;13.290;2023-05-09T12:15:59;18.70;37.00
6439;DHT22;3252;52.540;13.290;2023-05-09T12:18:03;18.60;37.30
6439;DHT22;3252;52.540;13.290;2023-05-09T12:20:06;18.70;37.20
6439;DHT22;3252;52.540;13.290;2023-05-09T12:22:09;18.90;37.30
6439;DHT22;3252;52.540;13.290;2023-05-09T12:24:11;18.90;36.10
6439;DHT22;3252;52.540;13.290;2023-05-09T12:26:14;18.80;35.70
6439;DHT22;3252;52.540;13.290;2023-05-09T12:28:19;18.80;36.20
6439;DHT22;3252;52.540;13.290;2023-05-09T12:30:21;18.90;36.40
6439;DHT22;3252;52.540;13.290;2023-05-09T12:32:24;18.90;36.20
6439;DHT22;3252;52.540;13.290;2023-05-09T12:34:31;18.60;36.90
6439;DHT22;3252;52.540;13.290;2023-05-09T12:36:34;18.80;38.00
6439;DHT22;3252;52.540;13.290;2023-05-09T12:38:37;19.00;37.90
6439;DHT22;3252;52.540;13.290;2023-05-09T12:40:39;19.10;37.50
6439;DHT22;3252;52.540;13.290;2023-05-09T12:42:43;19.20;36.80
6439;DHT22;3252;52.540;13.290;2023-05-09T12:44:48;18.90;36.60
6439;DHT22;3252;52.540;13.290;2023-05-09T12:46:58;18.90;37.10
6439;DHT22;3252;52.540;13.290;2023-05-09T12:49:01;18.90;37.10
6439;DHT22;3252;52.540;13.290;2023-05-09T12:51:03;19.10;38.00
6439;DHT22;3252;52.540;13.290;2023-05-09T12:53:06;19.10;37.90
6439;DHT22;3252;52.540;13.290;2023-05-09T12:55:09;19.20;37.60
6439;DHT22;3252;52.540;13.290;2023-05-09T12:57:20;19.20;38.00
6439;DHT22;3252;52.540;13.290;2023-05-09T12:59:24;19.30;37.90
6439;DHT22;3252;52.540;13.290;2023-05-09T13:01:28;19.40;38.30
6439;DHT22;3252;52.540;13.290;2023-05-09T13:03:31;19.50;38.20
6439;DHT22;3252;52.540;13.290;2023-05-09T13:05:37;19.50;37.30
6439;DHT22;3252;52.540;13.290;2023-05-09T13:07:40;19.60;36.90
6439;DHT22;3252;52.540;13.290;2023-05-09T13:10:00;19.30;36.40
6439;DHT22;3252;52.540;13.290;2023-05-09T13:12:03;19.20;36.90
6439;DHT22;3252;52.540;13.290;2023-05-09T13:14:05;19.10;36.90
6439;DHT22;3252;52.540;13.290;2023-05-09T13:16:07;19.10;37.00
6439;DHT22;3252;52.540;13.290;2023-05-09T13:18:11;19.20;37.70